createdAt,value
2018-07-08T00:01:35.011Z,20.40
2018-07-08T00:04:03.543Z,20.60
2018-07-08T00:06:32.620Z,20.50
2018-07-08T00:09:01.194Z,20.60
2018-07-08T00:11:29.887Z,20.40
2018-07-08T00:13:58.414Z,20.40
2018-07-08T00:16:26.953Z,20.50
2018-07-08T00:18:56.394Z,20.40
2018-07-08T00:21:24.934Z,20.20
2018-07-08T00:23:53.463Z,20.30
2018-07-08T00:26:22.092Z,20.20
2018-07-08T00:28:50.630Z,20.20
2018-07-08T00:31:19.212Z,20.20
2018-07-08T00:33:47.767Z,20.20
2018-07-08T00:36:16.482Z,20.10
2018-07-08T00:38:45.134Z,20.10
2018-07-08T00:41:14.028Z,20.10
2018-07-08T00:43:42.723Z,20.00
2018-07-08T00:46:11.580Z,20.10
2018-07-08T00:48:40.242Z,20.10
2018-07-08T00:51:08.763Z,20.00
2018-07-08T00:53:37.343Z,20.00
2018-07-08T00:56:05.887Z,19.80
2018-07-08T00:58:34.459Z,19.70
2018-07-08T01:01:03.056Z,19.60
2018-07-08T01:03:31.606Z,19.80
2018-07-08T01:08:28.403Z,19.70
2018-07-08T01:10:56.926Z,19.90
2018-07-08T01:13:25.463Z,19.80
2018-07-08T01:15:53.966Z,19.60
2018-07-08T01:18:22.620Z,19.60
2018-07-08T01:20:51.159Z,19.50
2018-07-08T01:23:19.844Z,19.40
2018-07-08T01:25:59.442Z,19.20
2018-07-08T01:28:27.995Z,19.10
2018-07-08T01:30:56.626Z,19.00
2018-07-08T01:33:25.177Z,19.10
2018-07-08T01:35:53.693Z,19.00
2018-07-08T01:38:22.227Z,19.20
2018-07-08T01:40:50.899Z,19.10
2018-07-08T01:45:47.988Z,18.90
2018-07-08T01:48:16.499Z,18.90
2018-07-08T01:50:45.195Z,19.00
2018-07-08T01:53:13.897Z,18.80
2018-07-08T01:55:42.434Z,18.90
2018-07-08T01:58:11.358Z,18.80
2018-07-08T02:00:40.055Z,18.80
2018-07-08T02:03:08.948Z,18.90
2018-07-08T02:05:37.763Z,19.00
2018-07-08T02:08:06.359Z,19.10
2018-07-08T02:10:35.232Z,19.10
2018-07-08T02:13:03.818Z,19.00
2018-07-08T02:15:32.678Z,19.10
2018-07-08T02:18:01.401Z,19.10
2018-07-08T02:20:29.918Z,19.20
2018-07-08T02:22:58.466Z,19.30
2018-07-08T02:25:27.528Z,19.30
2018-07-08T02:27:56.206Z,19.40
2018-07-08T02:30:24.770Z,19.40
2018-07-08T02:32:53.353Z,19.40
2018-07-08T02:35:21.883Z,19.30
2018-07-08T02:37:50.808Z,19.20
2018-07-08T02:40:19.363Z,19.20
2018-07-08T02:42:47.956Z,19.20
2018-07-08T02:45:16.507Z,19.20
2018-07-08T02:47:45.427Z,19.10
2018-07-08T02:50:13.951Z,19.10
2018-07-08T02:52:43.279Z,19.10
2018-07-08T02:55:11.882Z,19.10
2018-07-08T02:57:40.415Z,19.10
2018-07-08T03:00:08.974Z,18.90
2018-07-08T03:02:37.619Z,18.80
2018-07-08T03:05:06.186Z,18.90
2018-07-08T03:07:34.843Z,18.80
2018-07-08T03:12:31.690Z,18.80
2018-07-08T03:15:00.248Z,18.70
2018-07-08T03:17:28.775Z,18.60
2018-07-08T03:19:57.333Z,18.60
2018-07-08T03:22:25.963Z,18.60
2018-07-08T03:24:54.820Z,18.60
2018-07-08T03:27:23.334Z,18.60
2018-07-08T03:29:52.166Z,18.50
2018-07-08T03:32:20.843Z,18.50
2018-07-08T03:34:49.702Z,18.50
2018-07-08T03:37:18.322Z,18.50
2018-07-08T03:39:46.841Z,18.50
2018-07-08T03:42:15.412Z,18.50
2018-07-08T03:44:44.015Z,18.50
2018-07-08T03:47:12.623Z,18.50
2018-07-08T03:49:41.249Z,18.50
2018-07-08T03:52:09.866Z,18.50
2018-07-08T03:54:38.466Z,18.40
2018-07-08T03:57:07.008Z,18.30
2018-07-08T03:59:35.858Z,18.30
2018-07-08T04:02:04.438Z,18.30
2018-07-08T04:04:33.120Z,18.30
2018-07-08T04:07:01.730Z,18.20
2018-07-08T04:09:30.266Z,18.10
2018-07-08T04:11:58.810Z,18.20
2018-07-08T04:14:27.451Z,18.20
2018-07-08T04:16:56.023Z,18.10
2018-07-08T04:19:24.590Z,18.20
2018-07-08T04:21:53.331Z,18.20
2018-07-08T04:24:22.047Z,18.20
2018-07-08T04:26:50.702Z,18.10
2018-07-08T04:29:19.243Z,18.10
2018-07-08T04:31:47.802Z,18.10
2018-07-08T04:34:16.401Z,18.10
2018-07-08T04:36:45.028Z,18.10
2018-07-08T04:39:13.907Z,18.10
2018-07-08T04:41:42.466Z,18.10
2018-07-08T04:44:11.075Z,18.10
2018-07-08T04:46:39.630Z,18.10
2018-07-08T04:49:08.252Z,18.20
2018-07-08T04:51:36.774Z,18.20
2018-07-08T04:54:05.407Z,18.10
2018-07-08T04:56:33.982Z,18.10
2018-07-08T04:59:02.603Z,18.00
2018-07-08T05:01:31.280Z,18.00
2018-07-08T05:04:00.052Z,18.20
2018-07-08T05:06:28.615Z,18.40
2018-07-08T05:08:57.178Z,18.40
2018-07-08T05:11:25.794Z,18.50
2018-07-08T05:13:54.374Z,18.40
2018-07-08T05:16:23.062Z,18.30
2018-07-08T05:18:51.679Z,18.30
2018-07-08T05:21:20.290Z,18.30
2018-07-08T05:23:48.843Z,18.50
2018-07-08T05:26:17.478Z,18.40
2018-07-08T05:28:46.044Z,18.40
2018-07-08T05:31:14.630Z,18.40
2018-07-08T05:33:43.261Z,18.50
2018-07-08T05:36:11.830Z,18.60
2018-07-08T05:41:08.721Z,18.80
2018-07-08T05:43:37.491Z,18.80
2018-07-08T05:46:06.038Z,18.60
2018-07-08T05:48:34.595Z,18.40
2018-07-08T05:51:03.311Z,18.60
2018-07-08T05:53:31.854Z,18.60
2018-07-08T05:56:00.395Z,18.60
2018-07-08T05:58:29.050Z,18.70
2018-07-08T06:00:57.614Z,18.70
2018-07-08T06:03:26.215Z,18.70
2018-07-08T06:05:54.730Z,18.70
2018-07-08T06:08:23.363Z,18.90
2018-07-08T06:10:51.915Z,18.90
2018-07-08T06:13:20.468Z,19.00
2018-07-08T06:15:49.007Z,19.00
2018-07-08T06:18:17.571Z,19.10
2018-07-08T06:20:46.119Z,19.00
2018-07-08T06:23:14.849Z,19.10
2018-07-08T06:25:43.632Z,19.20
2018-07-08T06:28:12.186Z,19.30
2018-07-08T06:30:40.768Z,19.40
2018-07-08T06:33:09.303Z,19.50
2018-07-08T06:35:37.906Z,19.40
2018-07-08T06:38:06.668Z,19.30
2018-07-08T06:40:35.364Z,19.40
2018-07-08T06:43:03.902Z,19.60
2018-07-08T06:45:32.631Z,19.60
2018-07-08T06:48:01.251Z,19.70
2018-07-08T06:50:29.906Z,19.70
2018-07-08T06:52:58.658Z,19.80
2018-07-08T06:55:27.258Z,19.90
2018-07-08T06:57:55.927Z,20.00
2018-07-08T07:00:24.419Z,20.00
2018-07-08T07:02:53.474Z,20.30
2018-07-08T07:05:22.062Z,20.40
2018-07-08T07:07:50.939Z,20.30
2018-07-08T07:10:19.508Z,20.30
2018-07-08T07:12:48.114Z,20.30
2018-07-08T07:15:16.662Z,20.40
2018-07-08T07:17:45.266Z,20.70
2018-07-08T07:20:13.786Z,20.90
2018-07-08T07:22:42.335Z,21.20
2018-07-08T07:25:10.955Z,21.50
2018-07-08T07:27:39.546Z,21.40
2018-07-08T07:30:08.222Z,21.30
2018-07-08T07:32:36.778Z,22.30
2018-07-08T07:35:05.455Z,23.60
2018-07-08T07:37:34.219Z,22.60
2018-07-08T07:40:02.875Z,22.70
2018-07-08T07:42:31.431Z,23.00
2018-07-08T07:45:00.127Z,22.90
2018-07-08T07:47:28.834Z,23.70
2018-07-08T07:49:57.610Z,24.00
2018-07-08T07:52:26.370Z,23.40
2018-07-08T07:54:55.150Z,23.40
2018-07-08T07:57:23.687Z,24.10
2018-07-08T07:59:52.340Z,24.80
2018-07-08T08:02:20.976Z,24.00
2018-07-08T08:04:49.690Z,23.90
2018-07-08T08:07:18.231Z,24.50
2018-07-08T08:09:46.851Z,25.70
2018-07-08T08:12:15.770Z,26.30
2018-07-08T08:17:12.647Z,26.90
2018-07-08T08:19:41.203Z,26.10
2018-07-08T08:22:09.795Z,25.50
2018-07-08T08:24:38.721Z,25.40
2018-07-08T08:27:07.645Z,26.30
2018-07-08T08:29:36.186Z,26.80
2018-07-08T08:32:04.815Z,26.50
2018-07-08T08:35:20.667Z,27.20
2018-07-08T08:37:51.491Z,27.50
2018-07-08T08:40:21.409Z,26.20
2018-07-08T08:42:50.045Z,25.60
2018-07-08T08:45:19.678Z,26.10
2018-07-08T08:47:48.307Z,26.70
2018-07-08T08:50:17.342Z,26.50
2018-07-08T08:52:46.069Z,27.70
2018-07-08T08:55:15.028Z,27.40
2018-07-08T08:57:43.556Z,27.10
2018-07-08T09:00:17.213Z,28.60
2018-07-08T09:02:46.064Z,29.40
2018-07-08T09:05:14.682Z,29.10
2018-07-08T09:07:43.501Z,28.20
2018-07-08T09:10:12.106Z,28.00
2018-07-08T09:12:40.894Z,28.50
2018-07-08T09:15:09.587Z,28.70
2018-07-08T09:17:38.345Z,28.90
2018-07-08T09:20:07.248Z,28.00
2018-07-08T09:22:35.850Z,27.60
2018-07-08T09:25:05.127Z,28.20
2018-07-08T09:27:33.924Z,29.80
2018-07-08T09:30:02.746Z,28.50
2018-07-08T09:32:31.610Z,27.60
2018-07-08T09:35:00.366Z,27.80
2018-07-08T09:37:28.919Z,27.70
2018-07-08T09:39:57.633Z,27.40
2018-07-08T09:42:26.312Z,27.90
2018-07-08T09:44:54.905Z,27.50
2018-07-08T09:47:23.450Z,27.20
2018-07-08T09:52:20.466Z,30.00
2018-07-08T09:54:49.095Z,28.40
2018-07-08T09:59:46.147Z,27.50
2018-07-08T10:04:43.174Z,27.90
2018-07-08T10:07:11.799Z,27.40
2018-07-08T10:09:40.360Z,27.40
2018-07-08T10:12:09.083Z,28.10
2018-07-08T10:14:37.682Z,29.10
2018-07-08T10:17:06.464Z,29.50
2018-07-08T10:19:35.087Z,30.20
2018-07-08T10:22:03.627Z,29.60
2018-07-08T10:24:32.239Z,27.70
2018-07-08T10:27:12.607Z,27.70
2018-07-08T10:29:41.243Z,29.00
2018-07-08T10:32:09.976Z,29.10
2018-07-08T10:34:38.726Z,27.90
2018-07-08T10:37:07.395Z,29.20
2018-07-08T10:39:36.119Z,30.10
2018-07-08T10:42:04.646Z,30.20
2018-07-08T10:44:33.422Z,30.10
2018-07-08T10:47:02.020Z,30.10
2018-07-08T10:49:30.581Z,29.20
2018-07-08T10:51:59.238Z,28.80
2018-07-08T10:54:27.851Z,27.80
2018-07-08T10:59:24.945Z,29.30
2018-07-08T11:01:53.739Z,28.90
2018-07-08T11:04:22.287Z,27.90
2018-07-08T11:06:50.960Z,28.00
2018-07-08T11:09:19.563Z,29.40
2018-07-08T11:11:48.131Z,29.70
2018-07-08T11:14:16.843Z,30.20
2018-07-08T11:16:45.382Z,29.30
2018-07-08T11:19:14.079Z,29.00
2018-07-08T11:21:42.658Z,28.20
2018-07-08T11:24:11.303Z,28.70
2018-07-08T11:26:39.984Z,29.70
2018-07-08T11:29:08.558Z,28.70
2018-07-08T11:31:37.153Z,28.20
2018-07-08T11:34:05.990Z,27.30
2018-07-08T11:36:34.774Z,27.80
2018-07-08T11:39:03.634Z,28.60
2018-07-08T11:41:32.279Z,28.60
2018-07-08T11:44:01.030Z,27.40
2018-07-08T11:46:29.603Z,27.50
2018-07-08T11:48:58.118Z,28.20
2018-07-08T11:51:26.796Z,28.30
2018-07-08T11:53:55.402Z,28.40
2018-07-08T11:56:24.084Z,28.00
2018-07-08T11:58:52.740Z,27.40
2018-07-08T12:01:21.415Z,27.30
2018-07-08T12:03:50.035Z,28.40
2018-07-08T12:06:18.604Z,27.60
2018-07-08T12:08:47.220Z,27.50
2018-07-08T12:11:16.050Z,27.10
2018-07-08T12:13:44.775Z,27.50
2018-07-08T12:16:13.358Z,27.50
2018-07-08T12:18:42.011Z,27.20
2018-07-08T12:21:10.675Z,26.90
2018-07-08T12:23:40.631Z,27.40
2018-07-08T12:26:09.227Z,26.90
2018-07-08T12:28:38.283Z,26.40
2018-07-08T12:31:07.091Z,26.90
2018-07-08T12:33:35.771Z,26.60
2018-07-08T12:36:05.500Z,26.50
2018-07-08T12:38:34.235Z,27.00
2018-07-08T12:41:02.999Z,27.00
2018-07-08T12:43:31.582Z,26.20
2018-07-08T12:46:00.328Z,26.30
2018-07-08T12:48:28.911Z,26.50
2018-07-08T12:50:57.802Z,26.10
2018-07-08T12:53:26.432Z,26.70
2018-07-08T12:55:55.093Z,27.30
2018-07-08T12:58:23.811Z,27.80
2018-07-08T13:00:52.464Z,28.20
2018-07-08T13:03:21.203Z,28.30
2018-07-08T13:08:18.095Z,26.50
2018-07-08T13:10:47.109Z,26.70
2018-07-08T13:13:15.766Z,26.30
2018-07-08T13:15:44.390Z,26.40
2018-07-08T13:18:13.015Z,26.80
2018-07-08T13:20:41.791Z,26.50
2018-07-08T13:23:10.459Z,25.90
2018-07-08T13:25:39.027Z,26.00
2018-07-08T13:28:07.975Z,26.70
2018-07-08T13:30:36.687Z,27.00
2018-07-08T13:33:05.316Z,26.70
2018-07-08T13:35:33.959Z,26.80
2018-07-08T13:38:02.746Z,26.90
2018-07-08T13:40:31.292Z,26.60
2018-07-08T13:42:59.975Z,26.50
2018-07-08T13:45:28.518Z,26.90
2018-07-08T13:47:57.162Z,26.70
2018-07-08T13:50:25.827Z,26.40
2018-07-08T13:52:54.427Z,26.10
2018-07-08T13:55:23.240Z,26.10
2018-07-08T13:57:51.873Z,26.10
2018-07-08T14:00:20.451Z,26.30
2018-07-08T14:02:49.291Z,26.50
2018-07-08T14:05:17.867Z,26.20
2018-07-08T14:07:46.477Z,26.30
2018-07-08T14:10:15.487Z,26.20
2018-07-08T14:12:44.044Z,26.00
2018-07-08T14:15:12.823Z,26.40
2018-07-08T14:17:41.415Z,26.40
2018-07-08T14:20:10.096Z,26.40
2018-07-08T14:22:38.710Z,26.40
2018-07-08T14:25:07.379Z,26.30
2018-07-08T14:27:36.007Z,26.50
2018-07-08T14:30:05.052Z,26.40
2018-07-08T14:32:33.707Z,26.30
2018-07-08T14:35:02.460Z,26.50
2018-07-08T14:37:31.391Z,26.50
2018-07-08T14:39:59.959Z,26.50
2018-07-08T14:42:28.548Z,27.10
2018-07-08T14:44:57.239Z,26.60
2018-07-08T14:47:25.970Z,26.60
2018-07-08T14:49:54.824Z,26.70
2018-07-08T14:52:24.440Z,26.20
2018-07-08T14:54:53.097Z,26.30
2018-07-08T14:57:21.733Z,26.40
2018-07-08T14:59:50.253Z,26.50
2018-07-08T15:02:19.260Z,26.40
2018-07-08T15:04:48.078Z,26.30
2018-07-08T15:07:16.625Z,26.00
2018-07-08T15:09:45.696Z,26.10
2018-07-08T15:12:14.171Z,26.20
2018-07-08T15:14:42.770Z,26.20
2018-07-08T15:17:11.387Z,26.20
2018-07-08T15:19:40.052Z,26.40
2018-07-08T15:22:08.763Z,26.50
2018-07-08T15:24:37.386Z,26.60
2018-07-08T15:27:05.989Z,26.60
2018-07-08T15:29:34.546Z,26.60
2018-07-08T15:32:03.372Z,26.30
2018-07-08T15:34:32.207Z,26.30
2018-07-08T15:37:00.755Z,26.40
2018-07-08T15:39:30.449Z,26.00
2018-07-08T15:41:58.966Z,26.20
2018-07-08T15:44:27.606Z,26.00
2018-07-08T15:46:56.199Z,26.00
2018-07-08T15:49:24.818Z,26.20
2018-07-08T15:51:53.634Z,26.20
2018-07-08T15:54:22.320Z,26.20
2018-07-08T15:56:51.741Z,26.30
2018-07-08T15:59:21.136Z,26.40
2018-07-08T16:01:49.789Z,26.40
2018-07-08T16:04:18.332Z,26.40
2018-07-08T16:09:15.054Z,26.20
2018-07-08T16:11:43.762Z,26.30
2018-07-08T16:14:12.429Z,26.50
2018-07-08T16:16:41.059Z,26.70
2018-07-08T16:19:09.640Z,26.50
2018-07-08T16:21:38.262Z,26.60
2018-07-08T16:24:06.894Z,26.40
2018-07-08T16:29:03.778Z,26.20
2018-07-08T16:31:32.707Z,26.10
2018-07-08T16:34:01.420Z,26.20
2018-07-08T16:36:30.099Z,26.20
2018-07-08T16:38:58.914Z,26.20
2018-07-08T16:41:27.879Z,26.20
2018-07-08T16:43:56.766Z,26.20
2018-07-08T16:46:25.450Z,26.10
2018-07-08T16:48:54.364Z,26.10
2018-07-08T16:51:23.119Z,26.10
2018-07-08T16:53:51.654Z,26.10
2018-07-08T16:56:20.421Z,26.00
2018-07-08T16:58:49.211Z,25.90
2018-07-08T17:01:18.052Z,25.90
2018-07-08T17:03:47.194Z,25.90
2018-07-08T17:06:16.209Z,25.90
2018-07-08T17:08:44.798Z,25.90
2018-07-08T17:11:13.411Z,25.90
2018-07-08T17:13:42.050Z,25.90
2018-07-08T17:16:10.635Z,25.90
2018-07-08T17:18:39.203Z,26.00
2018-07-08T17:21:07.906Z,26.00
2018-07-08T17:23:36.792Z,26.00
2018-07-08T17:26:05.632Z,25.90
2018-07-08T17:28:34.399Z,25.90
2018-07-08T17:31:03.156Z,25.80
2018-07-08T17:33:31.855Z,25.80
2018-07-08T17:36:00.407Z,25.70
2018-07-08T17:38:29.233Z,25.80
2018-07-08T17:40:58.235Z,25.70
2018-07-08T17:43:27.047Z,25.70
2018-07-08T17:45:55.803Z,25.70
2018-07-08T17:48:24.387Z,25.70
2018-07-08T17:50:52.904Z,25.70
2018-07-08T17:53:21.483Z,25.60
2018-07-08T17:58:18.946Z,25.50
2018-07-08T18:00:47.602Z,25.40
2018-07-08T18:03:16.393Z,25.40
2018-07-08T18:05:45.091Z,25.30
2018-07-08T18:08:13.910Z,25.40
2018-07-08T18:10:42.455Z,25.30
2018-07-08T18:13:11.011Z,25.10
2018-07-08T18:15:40.506Z,25.10
2018-07-08T18:18:09.291Z,25.10
2018-07-08T18:20:38.215Z,25.10
2018-07-08T18:23:06.944Z,25.10
2018-07-08T18:25:35.640Z,25.10
2018-07-08T18:28:04.624Z,25.00
2018-07-08T18:30:34.946Z,25.00
2018-07-08T18:33:04.279Z,24.90
2018-07-08T18:35:32.925Z,24.80
2018-07-08T18:38:01.579Z,24.70
2018-07-08T18:40:30.224Z,24.60
2018-07-08T18:42:58.780Z,24.60
2018-07-08T18:45:27.418Z,24.60
2018-07-08T18:47:55.971Z,24.40
2018-07-08T18:50:24.573Z,24.30
2018-07-08T18:52:53.206Z,24.30
2018-07-08T18:55:21.778Z,24.30
2018-07-08T18:57:50.623Z,24.10
2018-07-08T19:00:19.531Z,24.20
2018-07-08T19:02:48.096Z,24.20
2018-07-08T19:05:16.855Z,24.00
2018-07-08T19:07:45.517Z,24.00
2018-07-08T19:10:14.086Z,23.90
2018-07-08T19:12:42.616Z,23.80
2018-07-08T19:15:11.256Z,23.70
2018-07-08T19:17:39.918Z,23.70
2018-07-08T19:20:08.607Z,23.50
2018-07-08T19:22:37.243Z,23.40
2018-07-08T19:25:05.792Z,23.50
2018-07-08T19:27:34.431Z,23.40
2018-07-08T19:30:03.267Z,23.30
2018-07-08T19:32:32.610Z,23.40
2018-07-08T19:35:01.660Z,23.30
2018-07-08T19:37:30.871Z,23.20
2018-07-08T19:39:59.452Z,23.10
2018-07-08T19:42:28.115Z,23.20
2018-07-08T19:44:57.366Z,23.30
2018-07-08T19:47:26.133Z,23.30
2018-07-08T19:49:54.995Z,23.20
2018-07-08T19:52:24.008Z,23.20
2018-07-08T19:54:52.728Z,23.20
2018-07-08T19:57:21.338Z,23.20
2018-07-08T19:59:49.977Z,23.10
2018-07-08T20:02:18.693Z,23.10
2018-07-08T20:04:47.979Z,23.00
2018-07-08T20:07:16.766Z,22.90
2018-07-08T20:09:45.518Z,22.90
2018-07-08T20:12:14.263Z,22.80
2018-07-08T20:14:42.858Z,22.90
2018-07-08T20:17:11.524Z,22.80
2018-07-08T20:19:40.127Z,22.70
2018-07-08T20:24:37.626Z,22.50
2018-07-08T20:27:06.478Z,22.50
2018-07-08T20:29:35.611Z,22.40
2018-07-08T20:32:04.316Z,22.10
2018-07-08T20:34:32.942Z,22.20
2018-07-08T20:37:01.812Z,22.30
2018-07-08T20:39:30.467Z,22.30
2018-07-08T20:41:59.456Z,22.20
2018-07-08T20:44:28.074Z,22.20
2018-07-08T20:46:56.752Z,22.10
2018-07-08T20:49:26.315Z,22.00
2018-07-08T20:51:56.756Z,21.80
2018-07-08T20:54:25.527Z,21.80
2018-07-08T20:56:54.350Z,21.80
2018-07-08T20:59:22.942Z,21.60
2018-07-08T21:01:51.632Z,21.60
2018-07-08T21:04:21.187Z,21.50
2018-07-08T21:06:49.827Z,21.50
2018-07-08T21:09:18.599Z,21.40
2018-07-08T21:11:47.499Z,21.40
2018-07-08T21:14:16.227Z,21.30
2018-07-08T21:16:45.123Z,21.20
2018-07-08T21:19:13.652Z,21.30
2018-07-08T21:21:42.364Z,21.10
2018-07-08T21:24:10.977Z,21.10
2018-07-08T21:26:39.550Z,21.00
2018-07-08T21:29:08.164Z,21.00
2018-07-08T21:31:36.788Z,21.20
2018-07-08T21:34:05.455Z,21.20
2018-07-08T21:36:34.093Z,21.20
2018-07-08T21:39:02.771Z,21.20
2018-07-08T21:41:31.776Z,21.00
2018-07-08T21:44:00.656Z,21.00
2018-07-08T21:46:29.439Z,20.90
2018-07-08T21:48:58.237Z,20.80
2018-07-08T21:51:26.788Z,20.70
2018-07-08T21:53:55.414Z,20.70
2018-07-08T21:56:23.942Z,20.50
2018-07-08T21:58:52.518Z,20.50
2018-07-08T22:01:22.371Z,20.50
2018-07-08T22:03:51.486Z,20.60
2018-07-08T22:06:20.670Z,20.30
2018-07-08T22:08:49.446Z,20.40
2018-07-08T22:11:18.193Z,20.20
2018-07-08T22:13:47.115Z,19.90
2018-07-08T22:16:15.697Z,19.80
2018-07-08T22:18:44.310Z,19.90
2018-07-08T22:21:13.050Z,20.00
2018-07-08T22:23:41.586Z,20.00
2018-07-08T22:26:10.192Z,19.80
2018-07-08T22:28:38.782Z,19.70
2018-07-08T22:31:07.649Z,19.50
2018-07-08T22:33:36.385Z,19.50
2018-07-08T22:36:04.971Z,19.40
2018-07-08T22:38:33.710Z,19.30
2018-07-08T22:41:02.291Z,19.40
2018-07-08T22:43:30.931Z,19.30
2018-07-08T22:45:59.566Z,19.20
2018-07-08T22:48:28.156Z,19.20
2018-07-08T22:50:56.938Z,19.40
2018-07-08T22:53:25.617Z,19.40
2018-07-08T22:55:54.286Z,19.40
2018-07-08T22:58:22.974Z,19.30
2018-07-08T23:01:02.818Z,19.10
2018-07-08T23:04:07.152Z,19.00
2018-07-08T23:06:35.791Z,18.90
2018-07-08T23:09:05.693Z,18.90
2018-07-08T23:11:34.346Z,18.80
2018-07-08T23:14:03.102Z,18.80
2018-07-08T23:16:31.660Z,18.60
2018-07-08T23:19:00.280Z,18.60
2018-07-08T23:21:28.894Z,18.70
2018-07-08T23:23:57.434Z,18.80
2018-07-08T23:26:26.127Z,18.60
2018-07-08T23:28:54.748Z,18.50
2018-07-08T23:31:23.431Z,18.40
2018-07-08T23:33:51.994Z,18.30
2018-07-08T23:36:20.561Z,18.30
2018-07-08T23:38:49.118Z,18.30
2018-07-08T23:41:17.827Z,18.20
2018-07-08T23:43:46.482Z,18.20
2018-07-08T23:46:15.095Z,18.20
2018-07-08T23:48:43.784Z,18.20
2018-07-08T23:51:12.496Z,18.10
2018-07-08T23:53:41.067Z,18.00
2018-07-08T23:56:09.735Z,18.00
2018-07-08T23:58:38.340Z,17.90
